Luverne, MN

9:56 AM CST on November 21, 2019 (GMT -0600)
Luverne

Weather History for KLYV - September, 2019

Change the Weather History Date:

Monday, September 23, 2019

  Actual Average (WUND) Record (WUND)
Temperature  
Mean Temperature 58 °F -  
Max Temperature 75 °F - - (-1)
Min Temperature 42 °F - - (-1)
Degree Days  
Heating Degree Days 6    
Growing Degree Days 8 (Base 50)    
Moisture  
Dew Point 49 °F    
Average Humidity 72    
Maximum Humidity 100    
Minimum Humidity 36    
Precipitation  
Precipitation 0.00 in - - ()
Sea Level Pressure  
Sea Level Pressure 29.99 in    
Wind  
Wind Speed 1 mph (SSW)    
Max Wind Speed 8 mph    
Max Gust Speed -    
Visibility 10 miles    
Events Fog    
Averages and records for this station are not official NWS values.
T = Trace of Precipitation, MM = Missing Value Source: NWS Daily Summary

Daily Weather History Graph

Daily Weather History Graph

Search for Another Location

Airport or City:

Astronomy

Sep. 23, 2019 Rise Set
Actual Time 7:13 AM CDT 7:20 PM CDT
Civil Twilight 6:44 AM CDT 7:49 PM CDT
Nautical Twilight 6:10 AM CDT 8:22 PM CDT
Astronomical Twilight 5:36 AM CDT 8:56 PM CDT
Moon 12:45 AM CDT (9/23) 4:26 PM CDT (9/23)
Length of Visible Light 13h 04m
Length of Day
12h 07m
Waning Crescent, 33% of the Moon is Illuminated
Sep 23
Waning Crescent
Sep 28
New
Oct 5
First Quarter
Oct 13
Full
Oct 21
Last Quarter

Hourly Weather History & Observations

Time (CDT) Temp. Windchill Dew Point Humidity Pressure Visibility Wind Dir Wind Speed Gust Speed Precip Events Conditions
12:15 AM 51.8 °F - 46.4 °F 82% 29.99 in 10.0 mi Calm Calm - N/A   Clear
12:19 AM 51.8 °F - 46.4 °F 82% 29.99 in 10.0 mi Calm Calm - N/A   Clear
12:37 AM 51.8 °F - 46.4 °F 82% 29.99 in 10.0 mi Calm Calm - N/A   Clear
12:56 AM 50.0 °F - 46.4 °F 87% 29.99 in 10.0 mi Calm Calm - N/A   Clear
1:16 AM 51.8 °F - 46.4 °F 82% 29.99 in 10.0 mi Calm Calm - N/A   Clear
1:36 AM 50.0 °F - 44.6 °F 82% 30.00 in 10.0 mi Calm Calm - N/A   Clear
1:59 AM 46.4 °F - 44.6 °F 93% 30.01 in 10.0 mi Calm Calm - N/A   Clear
2:16 AM 46.4 °F - 44.6 °F 93% 30.01 in 10.0 mi Calm Calm - N/A   Clear
2:36 AM 48.2 °F - 46.4 °F 93% 30.01 in 10.0 mi Calm Calm - N/A   Clear
2:56 AM 48.2 °F - 46.4 °F 93% 30.01 in 10.0 mi Calm Calm - N/A   Clear
3:15 AM 46.4 °F - 44.6 °F 93% 30.02 in 10.0 mi Calm Calm - N/A   Clear
3:38 AM 44.6 °F 43.1 °F 42.8 °F 93% 30.02 in 10.0 mi SSW 3.5 mph - N/A   Clear
3:56 AM 46.4 °F - 44.6 °F 93% 30.01 in 10.0 mi Calm Calm - N/A   Clear
4:16 AM 46.4 °F - 44.6 °F 93% 30.02 in 10.0 mi Calm Calm - N/A   Clear
4:36 AM 46.4 °F - 44.6 °F 93% 30.02 in 10.0 mi Calm Calm - N/A   Clear
4:59 AM 44.6 °F - 42.8 °F 93% 30.02 in 10.0 mi Calm Calm - N/A   Clear
5:16 AM 44.6 °F - 42.8 °F 93% 30.03 in 10.0 mi Calm Calm - N/A   Clear
5:36 AM 44.6 °F - 42.8 °F 93% 30.02 in 10.0 mi Calm Calm - N/A   Clear
5:56 AM 44.6 °F - 42.8 °F 93% 30.02 in 10.0 mi Calm Calm - N/A   Clear
6:15 AM 44.6 °F - 42.8 °F 93% 30.02 in 10.0 mi Calm Calm - N/A   Clear
6:20 AM 44.6 °F - 42.8 °F 93% 30.02 in 10.0 mi Calm Calm - N/A   Clear
6:38 AM 44.6 °F - 42.8 °F 93% 30.03 in 10.0 mi Calm Calm - N/A   Clear
6:56 AM 44.6 °F - 42.8 °F 93% 30.03 in 10.0 mi Calm Calm - N/A   Clear
7:16 AM 42.8 °F - 42.8 °F 100% 30.03 in 10.0 mi Calm Calm - N/A   Clear
7:36 AM 44.6 °F - 42.8 °F 93% 30.03 in 0.2 mi Calm Calm - N/A Fog Fog
7:59 AM 44.6 °F - 42.8 °F 93% 30.04 in 7.0 mi Calm Calm - N/A   Clear
8:16 AM 46.4 °F - 44.6 °F 93% 30.05 in 10.0 mi Calm Calm - N/A   Clear
8:56 AM 51.8 °F - 46.4 °F 82% 30.05 in 10.0 mi Calm Calm - N/A   Clear
9:15 AM 51.8 °F - 48.2 °F 88% 30.06 in 10.0 mi Calm Calm - N/A   Clear
9:37 AM 55.4 °F - 50.0 °F 82% 30.06 in 10.0 mi Calm Calm - N/A   Clear
9:55 AM 59.0 °F - 51.8 °F 77% 30.06 in 10.0 mi South 3.5 mph - N/A   Clear
10:16 AM 60.8 °F - 51.8 °F 72% 30.06 in 10.0 mi SSW 3.5 mph - N/A   Clear
10:36 AM 62.6 °F - 51.8 °F 68% 30.07 in 10.0 mi SSW 6.9 mph - N/A   Clear
10:58 AM 64.4 °F - 51.8 °F 64% 30.06 in 10.0 mi SSW 5.8 mph - N/A   Clear
11:17 AM 64.4 °F - 51.8 °F 64% 30.05 in 10.0 mi SW 6.9 mph - N/A   Clear
11:36 AM 68.0 °F - 53.6 °F 60% 30.05 in 10.0 mi SSW 6.9 mph - N/A   Clear
11:56 AM 68.0 °F - 53.6 °F 60% 30.05 in 10.0 mi SW 6.9 mph - N/A   Clear
12:15 PM 69.8 °F - 53.6 °F 56% 30.04 in 10.0 mi SSW 5.8 mph - N/A   Clear
12:20 PM 69.8 °F - 51.8 °F 53% 30.04 in 10.0 mi SW 6.9 mph - N/A   Clear
12:38 PM 69.8 °F - 51.8 °F 53% 30.03 in 10.0 mi SSW 4.6 mph - N/A   Clear
12:55 PM 69.8 °F - 50.0 °F 49% 30.03 in 10.0 mi SSW 5.8 mph - N/A   Clear
1:35 PM 71.6 °F - 50.0 °F 46% 30.02 in 10.0 mi SSW 6.9 mph - N/A   Clear
1:58 PM 71.6 °F - 50.0 °F 46% 30.00 in 10.0 mi South 6.9 mph - N/A   Clear
2:16 PM 73.4 °F - 50.0 °F 44% 30.00 in 10.0 mi Calm Calm - N/A   Clear
2:36 PM 73.4 °F - 48.2 °F 41% 29.99 in 10.0 mi SSW 4.6 mph - N/A   Clear
2:56 PM 73.4 °F - 46.4 °F 38% 29.98 in 10.0 mi SSW 6.9 mph - N/A   Clear
3:15 PM 75.2 °F - 48.2 °F 38% 29.98 in 10.0 mi SW 6.9 mph - N/A   Clear
3:19 PM 75.2 °F - 48.2 °F 38% 29.98 in 10.0 mi SW 6.9 mph - N/A   Clear
3:37 PM 75.2 °F - 50.0 °F 41% 29.97 in 10.0 mi SW 6.9 mph - N/A   Clear
4:16 PM 75.2 °F - 46.4 °F 36% 29.97 in 10.0 mi SW 3.5 mph - N/A   Clear
4:36 PM 75.2 °F - 48.2 °F 38% 29.97 in 10.0 mi SSW 8.1 mph - N/A   Clear
4:59 PM 75.2 °F - 46.4 °F 36% 29.96 in 10.0 mi SSW 8.1 mph - N/A   Clear
5:17 PM 75.2 °F - 48.2 °F 38% 29.96 in 10.0 mi SSW 5.8 mph - N/A   Clear
5:36 PM 75.2 °F - 48.2 °F 38% 29.96 in 10.0 mi SSW 4.6 mph - N/A   Clear
5:56 PM 73.4 °F - 50.0 °F 44% 29.96 in 10.0 mi SSW 3.5 mph - N/A   Clear
6:15 PM 73.4 °F - 51.8 °F 47% 29.96 in 10.0 mi Calm Calm - N/A   Clear
6:20 PM 73.4 °F - 51.8 °F 47% 29.95 in 10.0 mi South 3.5 mph - N/A   Clear
6:38 PM 71.6 °F - 51.8 °F 50% 29.95 in 10.0 mi South 3.5 mph - N/A   Clear
6:55 PM 71.6 °F - 51.8 °F 50% 29.95 in 10.0 mi Calm Calm - N/A   Clear
7:16 PM 68.0 °F - 53.6 °F 60% 29.94 in 10.0 mi Calm Calm - N/A   Clear
7:58 PM 64.4 °F - 55.4 °F 73% 29.93 in 10.0 mi Calm Calm - N/A   Clear
8:16 PM 62.6 °F - 55.4 °F 77% 29.94 in 10.0 mi Calm Calm - N/A   Clear
8:36 PM 60.8 °F - 53.6 °F 77% 29.94 in 10.0 mi Calm Calm - N/A   Clear
8:56 PM 59.0 °F - 53.6 °F 82% 29.94 in 10.0 mi Calm Calm - N/A   Clear
9:15 PM 59.0 °F - 53.6 °F 82% 29.93 in 10.0 mi Calm Calm - N/A   Clear
9:19 PM 59.0 °F - 53.6 °F 82% 29.93 in 10.0 mi Calm Calm - N/A   Clear
9:38 PM 59.0 °F - 53.6 °F 82% 29.92 in 10.0 mi Calm Calm - N/A   Clear
9:55 PM 59.0 °F - 53.6 °F 82% 29.92 in 10.0 mi Calm Calm - N/A   Clear
10:16 PM 59.0 °F - 53.6 °F 82% 29.92 in 10.0 mi Calm Calm - N/A   Clear
10:35 PM 59.0 °F - 51.8 °F 77% 29.92 in 10.0 mi Calm Calm - N/A   Clear
10:58 PM 59.0 °F - 51.8 °F 77% 29.92 in 10.0 mi Calm Calm - N/A   Clear
11:16 PM 59.0 °F - 51.8 °F 77% 29.92 in 10.0 mi Calm Calm - N/A   Clear
11:36 PM 59.0 °F - 51.8 °F 77% 29.91 in 10.0 mi Calm Calm - N/A   Clear
11:56 PM 59.0 °F - 53.6 °F 82% 29.90 in 10.0 mi Calm Calm - N/A   Clear